createdAt,value
2018-03-25T00:01:18.933Z,5.60
2018-03-25T00:03:46.403Z,5.60
2018-03-25T00:06:14.303Z,5.60
2018-03-25T00:08:41.913Z,5.50
2018-03-25T00:11:09.388Z,5.50
2018-03-25T00:13:37.594Z,5.60
2018-03-25T00:16:05.089Z,5.50
2018-03-25T00:18:33.389Z,5.60
2018-03-25T00:21:01.608Z,5.50
2018-03-25T00:23:29.493Z,5.50
2018-03-25T00:25:57.753Z,5.40
2018-03-25T00:28:25.629Z,5.40
2018-03-25T00:30:53.542Z,5.40
2018-03-25T00:33:21.415Z,5.30
2018-03-25T00:35:49.244Z,5.30
2018-03-25T00:38:17.502Z,5.30
2018-03-25T00:40:45.776Z,5.30
2018-03-25T00:43:13.631Z,5.30
2018-03-25T00:45:41.650Z,5.20
2018-03-25T00:48:10.262Z,5.20
2018-03-25T00:50:37.820Z,5.20
2018-03-25T00:53:05.701Z,5.20
2018-03-25T00:55:33.180Z,5.10
2018-03-25T00:58:01.868Z,5.10
2018-03-25T01:00:30.158Z,5.10
2018-03-25T01:02:58.387Z,5.00
2018-03-25T01:05:26.296Z,5.00
2018-03-25T01:07:54.198Z,5.00
2018-03-25T01:10:21.753Z,5.00
2018-03-25T01:12:49.588Z,5.00
2018-03-25T01:15:17.844Z,5.00
2018-03-25T01:17:45.719Z,5.00
2018-03-25T01:20:13.898Z,4.90
2018-03-25T01:22:42.147Z,5.00
2018-03-25T01:25:10.072Z,4.90
2018-03-25T01:27:38.000Z,4.90
2018-03-25T01:30:06.237Z,4.80
2018-03-25T01:32:33.782Z,4.80
2018-03-25T01:35:01.645Z,4.80
2018-03-25T01:37:29.144Z,4.80
2018-03-25T01:39:57.050Z,4.70
2018-03-25T01:42:25.293Z,4.70
2018-03-25T01:44:52.767Z,4.70
2018-03-25T01:47:20.672Z,4.70
2018-03-25T01:49:49.628Z,4.60
2018-03-25T01:52:17.915Z,4.60
2018-03-25T01:54:45.411Z,4.60
2018-03-25T01:57:13.771Z,4.50
2018-03-25T01:59:41.241Z,4.60
2018-03-25T02:02:08.739Z,4.50
2018-03-25T02:04:36.521Z,4.60
2018-03-25T02:07:03.978Z,4.60
2018-03-25T02:09:31.536Z,4.60
2018-03-25T02:12:00.122Z,4.60
2018-03-25T02:14:27.649Z,4.60
2018-03-25T02:16:55.537Z,4.50
2018-03-25T02:19:23.679Z,4.50
2018-03-25T02:21:51.185Z,4.50
2018-03-25T02:24:18.674Z,4.50
2018-03-25T02:26:46.204Z,4.50
2018-03-25T02:29:13.731Z,4.50
2018-03-25T02:31:41.976Z,4.50
2018-03-25T02:34:09.789Z,4.50
2018-03-25T02:36:37.285Z,4.50
2018-03-25T02:39:06.435Z,4.50
2018-03-25T02:41:34.689Z,4.40
2018-03-25T02:44:02.199Z,4.50
2018-03-25T02:46:29.695Z,4.40
2018-03-25T02:48:57.490Z,4.40
2018-03-25T02:51:25.731Z,4.50
2018-03-25T02:53:53.217Z,4.50
2018-03-25T02:56:21.388Z,4.60
2018-03-25T02:58:49.267Z,4.50
2018-03-25T03:01:17.574Z,4.60
2018-03-25T03:03:45.451Z,4.60
2018-03-25T03:06:12.965Z,4.60
2018-03-25T03:08:41.192Z,4.60
2018-03-25T03:11:09.018Z,4.70
2018-03-25T03:13:36.900Z,4.70
2018-03-25T03:16:04.395Z,4.60
2018-03-25T03:18:32.706Z,5.80
2018-03-25T03:21:00.967Z,4.60
2018-03-25T03:23:28.480Z,4.60
2018-03-25T03:25:56.367Z,4.60
2018-03-25T03:28:23.869Z,4.60
2018-03-25T03:30:51.740Z,4.60
2018-03-25T03:33:20.411Z,4.60
2018-03-25T03:35:48.657Z,4.60
2018-03-25T03:38:16.167Z,4.60
2018-03-25T03:40:44.432Z,4.50
2018-03-25T03:43:12.310Z,4.50
2018-03-25T03:45:40.542Z,4.50
2018-03-25T03:48:08.740Z,4.40
2018-03-25T03:50:36.606Z,4.40
2018-03-25T03:53:04.480Z,4.50
2018-03-25T03:55:33.008Z,4.40
2018-03-25T03:58:00.888Z,4.40
2018-03-25T04:00:28.366Z,4.40
2018-03-25T04:02:56.117Z,4.40
2018-03-25T04:05:23.604Z,4.40
2018-03-25T04:07:51.503Z,4.40
2018-03-25T04:10:20.116Z,4.40
2018-03-25T04:12:47.624Z,4.40
2018-03-25T04:15:15.108Z,4.40
2018-03-25T04:17:43.440Z,4.40
2018-03-25T04:20:11.691Z,4.40
2018-03-25T04:22:39.169Z,4.40
2018-03-25T04:25:07.800Z,4.40
2018-03-25T04:27:35.352Z,4.30
2018-03-25T04:30:03.325Z,4.30
2018-03-25T04:32:30.915Z,4.30
2018-03-25T04:34:58.799Z,4.30
2018-03-25T04:37:27.055Z,4.30
2018-03-25T04:39:55.249Z,4.30
2018-03-25T04:42:23.538Z,4.40
2018-03-25T04:44:51.805Z,4.40
2018-03-25T04:47:19.813Z,4.40
2018-03-25T04:49:48.024Z,4.30
2018-03-25T04:52:15.512Z,4.40
2018-03-25T04:54:43.480Z,4.40
2018-03-25T04:57:10.994Z,4.40
2018-03-25T04:59:38.880Z,4.30
2018-03-25T05:02:07.220Z,4.40
2018-03-25T05:04:35.097Z,4.30
2018-03-25T05:07:02.567Z,4.30
2018-03-25T05:09:30.068Z,4.30
2018-03-25T05:11:58.313Z,4.20
2018-03-25T05:14:25.782Z,4.20
2018-03-25T05:16:53.671Z,4.20
2018-03-25T05:19:21.905Z,4.20
2018-03-25T05:21:49.376Z,4.20
2018-03-25T05:24:17.306Z,4.20
2018-03-25T05:26:45.913Z,4.20
2018-03-25T05:29:13.804Z,4.30
2018-03-25T05:31:43.044Z,6.20
2018-03-25T05:34:10.566Z,4.40
2018-03-25T05:36:38.036Z,4.40
2018-03-25T05:39:06.512Z,4.50
2018-03-25T05:41:34.779Z,4.50
2018-03-25T05:44:02.685Z,4.60
2018-03-25T05:46:30.562Z,4.60
2018-03-25T05:48:58.332Z,4.60
2018-03-25T05:51:25.835Z,4.60
2018-03-25T05:53:54.131Z,4.50
2018-03-25T05:56:21.662Z,4.60
2018-03-25T05:58:49.168Z,4.50
2018-03-25T06:01:17.019Z,4.50
2018-03-25T06:03:44.505Z,4.60
2018-03-25T06:06:12.024Z,4.60
2018-03-25T06:08:40.196Z,4.80
2018-03-25T06:11:08.195Z,4.90
2018-03-25T06:13:36.075Z,5.00
2018-03-25T06:16:03.884Z,5.10
2018-03-25T06:18:31.388Z,5.20
2018-03-25T06:20:58.894Z,5.40
2018-03-25T06:23:27.535Z,5.60
2018-03-25T06:25:55.021Z,5.90
2018-03-25T06:28:22.532Z,6.20
2018-03-25T06:30:50.312Z,6.50
2018-03-25T06:33:17.775Z,6.60
2018-03-25T06:35:45.322Z,6.80
2018-03-25T06:38:13.453Z,7.10
2018-03-25T06:40:41.706Z,7.40
2018-03-25T06:43:10.003Z,7.80
2018-03-25T06:45:37.903Z,8.10
2018-03-25T06:48:05.398Z,8.70
2018-03-25T06:50:33.035Z,8.90
2018-03-25T06:53:00.892Z,8.90
2018-03-25T06:55:28.769Z,8.90
2018-03-25T06:57:56.277Z,8.70
2018-03-25T07:00:24.039Z,8.90
2018-03-25T07:02:52.333Z,8.90
2018-03-25T07:05:19.833Z,9.20
2018-03-25T07:07:47.677Z,9.30
2018-03-25T07:10:15.677Z,9.20
2018-03-25T07:12:43.204Z,9.20
2018-03-25T07:15:11.453Z,9.00
2018-03-25T07:17:39.700Z,9.00
2018-03-25T07:20:07.183Z,8.90
2018-03-25T07:22:35.760Z,8.70
2018-03-25T07:25:04.025Z,9.00
2018-03-25T07:27:32.292Z,9.10
2018-03-25T07:30:00.285Z,9.30
2018-03-25T07:32:28.523Z,9.80
2018-03-25T07:34:56.033Z,10.00
2018-03-25T07:37:23.524Z,10.00
2018-03-25T07:39:51.012Z,10.10
2018-03-25T07:42:18.504Z,10.30
2018-03-25T07:44:46.328Z,9.90
2018-03-25T07:47:14.199Z,10.00
2018-03-25T07:49:41.667Z,9.70
2018-03-25T07:52:09.183Z,9.70
2018-03-25T07:54:36.652Z,9.90
2018-03-25T07:57:04.140Z,10.10
2018-03-25T07:59:32.735Z,10.50
2018-03-25T08:02:01.053Z,10.70
2018-03-25T08:04:28.545Z,10.70
2018-03-25T08:06:56.052Z,10.80
2018-03-25T08:09:23.579Z,10.90
2018-03-25T08:11:51.188Z,10.90
2018-03-25T08:14:18.716Z,11.00
2018-03-25T08:16:46.956Z,10.90
2018-03-25T08:19:14.436Z,10.90
2018-03-25T08:21:42.703Z,10.40
2018-03-25T08:24:10.212Z,10.40
2018-03-25T08:26:37.683Z,10.20
2018-03-25T08:29:05.484Z,10.20
2018-03-25T08:31:32.963Z,10.20
2018-03-25T08:34:01.240Z,10.20
2018-03-25T08:36:29.099Z,10.10
2018-03-25T08:38:57.381Z,10.80
2018-03-25T08:41:25.660Z,11.10
2018-03-25T08:43:53.527Z,11.10
2018-03-25T08:46:21.045Z,11.10
2018-03-25T08:48:48.526Z,11.20
2018-03-25T08:51:17.104Z,11.30
2018-03-25T08:53:45.531Z,11.30
2018-03-25T08:56:13.079Z,11.30
2018-03-25T08:58:40.645Z,11.50
2018-03-25T09:01:08.212Z,11.60
2018-03-25T09:03:35.839Z,11.60
2018-03-25T09:06:04.152Z,11.30
2018-03-25T09:08:31.652Z,11.30
2018-03-25T09:10:59.180Z,11.40
2018-03-25T09:13:26.693Z,11.10
2018-03-25T09:15:54.944Z,11.10
2018-03-25T09:18:22.432Z,11.10
2018-03-25T09:20:49.965Z,11.10
2018-03-25T09:23:18.238Z,11.40
2018-03-25T09:25:46.563Z,11.40
2018-03-25T09:28:14.329Z,11.40
2018-03-25T09:30:41.811Z,11.50
2018-03-25T09:33:09.317Z,11.80
2018-03-25T09:35:37.888Z,11.90
2018-03-25T09:38:06.165Z,11.90
2018-03-25T09:40:34.408Z,11.60
2018-03-25T09:43:02.354Z,11.60
2018-03-25T09:45:29.844Z,11.90
2018-03-25T09:47:57.328Z,11.90
2018-03-25T09:50:25.603Z,12.00
2018-03-25T09:52:53.092Z,12.00
2018-03-25T09:55:20.568Z,12.10
2018-03-25T09:57:48.046Z,12.40
2018-03-25T10:00:15.520Z,12.80
2018-03-25T10:02:48.411Z,13.60
2018-03-25T10:05:16.700Z,13.90
2018-03-25T10:07:44.248Z,14.10
2018-03-25T10:10:12.898Z,14.10
2018-03-25T10:12:40.380Z,14.10
2018-03-25T10:15:08.654Z,14.00
2018-03-25T10:17:37.340Z,14.10
2018-03-25T10:20:05.660Z,14.00
2018-03-25T10:22:33.139Z,14.00
2018-03-25T10:25:01.111Z,14.00
2018-03-25T10:27:28.579Z,13.80
2018-03-25T10:29:56.082Z,13.40
2018-03-25T10:32:23.595Z,13.30
2018-03-25T10:34:52.015Z,13.30
2018-03-25T10:37:19.598Z,13.70
2018-03-25T10:39:47.527Z,13.80
2018-03-25T10:42:15.036Z,14.00
2018-03-25T10:44:42.544Z,14.20
2018-03-25T10:47:10.833Z,14.40
2018-03-25T10:49:38.344Z,14.40
2018-03-25T10:52:05.890Z,14.80
2018-03-25T10:54:33.787Z,15.00
2018-03-25T10:57:02.067Z,15.10
2018-03-25T10:59:29.679Z,15.10
2018-03-25T11:01:57.520Z,15.30
2018-03-25T11:04:25.794Z,15.50
2018-03-25T11:06:53.235Z,15.50
2018-03-25T11:09:21.554Z,15.50
2018-03-25T11:11:49.071Z,15.40
2018-03-25T11:14:17.329Z,15.30
2018-03-25T11:16:44.845Z,15.30
2018-03-25T11:19:12.380Z,15.20
2018-03-25T11:21:39.888Z,15.70
2018-03-25T11:24:07.668Z,16.00
2018-03-25T15:36:28.015Z,12.60
2018-03-25T15:39:01.382Z,12.40
2018-03-25T15:47:18.885Z,12.40
2018-03-25T15:49:50.909Z,12.30
2018-03-25T15:52:19.450Z,12.40
2018-03-25T15:54:47.959Z,12.30
